Counce, TN (38326)

8:42 AM CDT on October 31, 2014 (GMT -0500)
HardinCountyWeather.com | Change Station
CLOSE
Current Station
Personal Weather Station
Location: Savannah, TN
Elevation: 443 ft
Nearby Weather Stations
Active Advisory: Freeze Warning, Freeze Watch

Elev 443 ft 35.26 °N, 88.22 °W | Updated 0 second ago

Partly Cloudy
Partly Cloudy
50.3 °F
Feels Like 50.3 °F
N
0.0
Wind Variable Wind from North
Gusts 0.0 mph

Today
High -- | Low -- °F
--% Chance of Precip.
Yesterday
High -- | Low -- °F
Precip. -- in
7:13 AM 5:59 PM
First Quarter, 55% visible
Pressure 30.03 in
Visibility 10.0 miles
Clouds Scattered Clouds 11000 ft
Dew Point 50 °F
Humidity 97%
Rainfall 0.05 in
Snow Depth Not available.
UV 1 out of 12
Pollen .90 out of 12
Air Quality Not available.
Flu Activity Not available.
METAR KCRX 311335Z AUTO 32004KT 10SM SCT110 09/08 A3003 RMK AO2

More Conditions Fewer Conditions

Pressure 30.03 in
Visibility 10.0 miles
Clouds Scattered Clouds 11000 ft
Dew Point 50 °F
Humidity 97%
Rainfall 0.05 in
Snow Depth Not available.
UV 1 out of 12
Pollen .90 out of 12
Air Quality Not available.
Flu Activity Not available.
METAR KCRX 311335Z AUTO 32004KT 10SM SCT110 09/08 A3003 RMK AO2

More Conditions Fewer Conditions

10-Day Weather Forecast

Almanac

Astronomy

Oct. 31, 2014 Rise Set
Actual Time
Civil Twilight
Nautical Twilight
Astronomical Twilight
Moon
Length of Visible Light
Length of Day
Tomorrow will be .
, % of the Moon is Illuminated

Today's Extremes

State Highs State Lows

Community

WunderPhotos

Upload Photos

1,766,612 photos uploaded!

WunderBlogs® & News

Nearby

Air Quality

  Air Quality AQ Index Pollutant
Not available.

Snow Depth

Station Depth Elevation

Earthquake Activity

City Distance Mag. Time & Date
Minimum magnitude displayed is 2.5.

Coastal Water Temperatures

Place Temperature

Nearby Weather Stations